< < Back
Terminal Aerodrome Forecast


Current Version              Previous Versions:   1  2  3  4  5  6  7  8  9  

Terminal Aerodrome Forecast

807
FTUS42 KFFC 010535
TAFMCN
TAF
KMCN 010535Z 0106/0206 08013KT 4SM -RA BKN008
     FM011000 08010KT 2SM -RADZ OVC004
     FM011500 08008KT 2SM -RADZ OVC004
     FM011900 08005KT P6SM BKN008
     FM020200 00000KT 2SM -DZ OVC004=



Latest METAR

121
SAUS80 KWBC 010600 RRH
MTRMCN
METAR KMCN 010553Z AUTO 04007KT 5SM BR SCT009 SCT012 OVC021 06/04 A3054
RMK AO2 RAB36E46 SLP341 P0000 60003 T00560044 10078 20056
58009 TSNO


USA.gov is the U.S. government's official web portal to all federal, state and local government web resources and services.